createdAt,value
2018-04-22T00:00:02.967Z,21.6
2018-04-22T00:00:52.445Z,21.6
2018-04-22T00:01:43.042Z,21.5
2018-04-22T00:02:31.982Z,21.5
2018-04-22T00:03:22.858Z,21.5
2018-04-22T00:04:12.977Z,21.5
2018-04-22T00:05:03.259Z,21.5
2018-04-22T00:05:53.632Z,21.5
2018-04-22T00:06:42.583Z,21.5
2018-04-22T00:07:32.418Z,21.5
2018-04-22T00:08:23.809Z,21.4
2018-04-22T00:09:13.334Z,21.4
2018-04-22T00:10:03.801Z,21.4
2018-04-22T00:10:53.441Z,21.4
2018-04-22T00:11:43.211Z,21.4
2018-04-22T00:12:33.333Z,21.4
2018-04-22T00:13:23.442Z,21.4
2018-04-22T00:14:14.115Z,21.4
2018-04-22T00:15:03.774Z,21.4
2018-04-22T00:15:53.339Z,21.4
2018-04-22T00:16:43.611Z,21.4
2018-04-22T00:17:33.634Z,21.4
2018-04-22T00:18:23.728Z,21.4
2018-04-22T00:19:14.693Z,21.4
2018-04-22T00:20:04.706Z,21.4
2018-04-22T00:20:54.209Z,21.4
2018-04-22T00:21:44.526Z,21.4
2018-04-22T00:22:34.354Z,21.4
2018-04-22T00:23:23.523Z,21.4
2018-04-22T00:24:13.875Z,21.4
2018-04-22T00:25:04.334Z,21.3
2018-04-22T00:25:54.066Z,21.3
2018-04-22T00:26:44.169Z,21.3
2018-04-22T00:27:34.505Z,21.4
2018-04-22T00:28:24.866Z,21.3
2018-04-22T00:29:14.367Z,21.3
2018-04-22T00:30:03.989Z,21.3
2018-04-22T00:30:54.719Z,21.3
2018-04-22T00:31:44.271Z,21.3
2018-04-22T00:32:34.666Z,21.3
2018-04-22T00:33:24.454Z,21.3
2018-04-22T00:34:15.219Z,21.3
2018-04-22T00:35:04.527Z,21.3
2018-04-22T00:35:54.810Z,21.3
2018-04-22T00:36:45.698Z,21.3
2018-04-22T00:37:35.241Z,21.3
2018-04-22T00:38:24.484Z,21.3
2018-04-22T00:39:16.159Z,21.3
2018-04-22T00:40:05.180Z,21.3
2018-04-22T00:40:54.986Z,21.3
2018-04-22T00:41:45.289Z,21.3
2018-04-22T00:42:34.806Z,21.2
2018-04-22T00:43:25.732Z,21.2
2018-04-22T00:44:15.711Z,21.2
2018-04-22T00:45:05.395Z,21.2
2018-04-22T00:45:55.448Z,21.2
2018-04-22T00:46:46.223Z,21.2
2018-04-22T00:47:34.927Z,21.2
2018-04-22T00:48:26.356Z,21.2
2018-04-22T00:49:16.413Z,21.2
2018-04-22T00:50:05.950Z,21.2
2018-04-22T00:50:56.323Z,21.2
2018-04-22T00:56:46.419Z,21.1
2018-04-22T00:57:36.531Z,21.1
2018-04-22T00:58:25.996Z,21.1
2018-04-22T00:59:16.619Z,21.1
2018-04-22T01:00:05.903Z,21.1
2018-04-22T01:00:56.716Z,21.1
2018-04-22T01:01:46.007Z,21.1
2018-04-22T01:02:36.307Z,21.1
2018-04-22T01:03:27.243Z,21.1
2018-04-22T01:04:17.071Z,21.1
2018-04-22T01:05:07.120Z,21.1
2018-04-22T01:05:56.892Z,21.1
2018-04-22T01:06:46.896Z,21.1
2018-04-22T01:07:36.995Z,21.1
2018-04-22T01:08:26.481Z,21
2018-04-22T01:09:16.311Z,21
2018-04-22T01:10:07.771Z,21
2018-04-22T01:10:57.300Z,21
2018-04-22T01:11:48.404Z,21
2018-04-22T01:12:38.452Z,21
2018-04-22T01:13:27.845Z,21
2018-04-22T01:14:18.582Z,20.9
2018-04-22T01:15:07.862Z,21
2018-04-22T01:15:57.919Z,21
2018-04-22T01:16:48.594Z,21
2018-04-22T01:17:38.255Z,20.9
2018-04-22T01:18:28.402Z,20.9
2018-04-22T01:19:18.420Z,20.9
2018-04-22T01:20:07.965Z,20.9
2018-04-22T01:20:58.852Z,20.9
2018-04-22T01:21:47.238Z,20.9
2018-04-22T01:22:38.912Z,20.9
2018-04-22T01:23:29.046Z,20.9
2018-04-22T01:24:18.549Z,20.9
2018-04-22T01:25:07.729Z,20.9
2018-04-22T01:25:59.150Z,20.9
2018-04-22T01:26:48.968Z,20.9
2018-04-22T01:27:38.761Z,20.9
2018-04-22T01:28:29.363Z,20.9
2018-04-22T01:29:19.240Z,20.9
2018-04-22T01:30:08.912Z,20.9
2018-04-22T01:30:59.816Z,20.9
2018-04-22T01:31:50.139Z,20.9
2018-04-22T01:32:39.129Z,20.9
2018-04-22T01:33:28.652Z,20.9
2018-04-22T01:34:20.081Z,20.9
2018-04-22T01:35:10.385Z,20.8
2018-04-22T01:35:59.950Z,20.8
2018-04-22T01:36:49.450Z,20.8
2018-04-22T01:37:39.442Z,20.8
2018-04-22T01:38:30.336Z,20.9
2018-04-22T01:39:20.545Z,20.8
2018-04-22T01:40:10.800Z,20.8
2018-04-22T01:41:00.284Z,20.8
2018-04-22T01:41:50.117Z,20.8
2018-04-22T01:42:39.014Z,20.8
2018-04-22T01:43:30.467Z,20.8
2018-04-22T01:44:20.530Z,20.8
2018-04-22T01:45:10.666Z,20.8
2018-04-22T01:46:00.623Z,20.8
2018-04-22T01:46:50.998Z,20.8
2018-04-22T01:47:40.773Z,20.8
2018-04-22T01:48:30.868Z,20.8
2018-04-22T01:49:21.458Z,20.8
2018-04-22T01:50:10.975Z,20.8
2018-04-22T01:51:00.786Z,20.8
2018-04-22T01:51:51.386Z,20.8
2018-04-22T01:52:40.349Z,20.8
2018-04-22T01:53:30.114Z,20.8
2018-04-22T01:54:21.345Z,20.8
2018-04-22T01:55:11.406Z,20.8
2018-04-22T01:56:01.271Z,20.8
2018-04-22T01:56:51.783Z,20.8
2018-04-22T01:57:41.913Z,20.7
2018-04-22T01:58:31.681Z,20.7
2018-04-22T01:59:21.126Z,20.7
2018-04-22T02:00:11.620Z,20.7
2018-04-22T02:01:01.298Z,20.7
2018-04-22T02:01:50.523Z,20.7
2018-04-22T02:02:42.010Z,20.7
2018-04-22T02:03:31.740Z,20.7
2018-04-22T02:04:20.984Z,20.7
2018-04-22T02:05:12.787Z,20.7
2018-04-22T02:06:01.416Z,20.7
2018-04-22T02:06:51.726Z,20.7
2018-04-22T02:07:42.372Z,20.7
2018-04-22T02:08:32.258Z,20.7
2018-04-22T02:09:21.638Z,20.7
2018-04-22T02:10:12.537Z,20.6
2018-04-22T02:11:01.764Z,20.6
2018-04-22T02:11:52.435Z,20.6
2018-04-22T02:12:41.713Z,20.6
2018-04-22T02:13:31.500Z,20.6
2018-04-22T02:14:22.065Z,20.6
2018-04-22T02:15:13.231Z,20.6
2018-04-22T02:16:02.472Z,20.6
2018-04-22T02:16:52.747Z,20.6
2018-04-22T02:17:43.109Z,20.6
2018-04-22T02:18:33.727Z,20.6
2018-04-22T02:19:23.750Z,20.6
2018-04-22T02:20:13.012Z,20.6
2018-04-22T02:21:03.596Z,20.6
2018-04-22T02:21:52.852Z,20.6
2018-04-22T02:22:43.766Z,20.6
2018-04-22T02:23:34.066Z,20.6
2018-04-22T02:24:23.331Z,20.6
2018-04-22T02:25:13.065Z,20.6
2018-04-22T02:26:04.024Z,20.6
2018-04-22T02:26:53.895Z,20.6
2018-04-22T02:27:44.144Z,20.6
2018-04-22T02:28:33.095Z,20.6
2018-04-22T02:29:23.405Z,20.6
2018-04-22T02:30:13.803Z,20.6
2018-04-22T02:31:04.157Z,20.6
2018-04-22T02:31:54.204Z,20.6
2018-04-22T02:32:44.307Z,20.5
2018-04-22T02:33:34.914Z,20.5
2018-04-22T02:34:24.159Z,20.5
2018-04-22T02:35:13.915Z,20.5
2018-04-22T02:36:04.518Z,20.5
2018-04-22T02:36:54.515Z,20.5
2018-04-22T02:37:44.137Z,20.5
2018-04-22T02:38:34.463Z,20.5
2018-04-22T02:39:25.073Z,20.5
2018-04-22T02:40:15.287Z,20.5
2018-04-22T02:41:05.017Z,20.4
2018-04-22T02:41:54.453Z,20.5
2018-04-22T02:42:45.080Z,20.5
2018-04-22T02:43:35.039Z,20.4
2018-04-22T02:44:24.597Z,20.5
2018-04-22T02:45:14.636Z,20.4
2018-04-22T02:46:04.766Z,20.5
2018-04-22T02:46:55.705Z,20.4
2018-04-22T02:47:44.553Z,20.5
2018-04-22T02:48:34.351Z,20.4
2018-04-22T02:49:25.801Z,20.4
2018-04-22T02:50:15.281Z,20.4
2018-04-22T02:51:05.431Z,20.4
2018-04-22T02:51:55.519Z,20.4
2018-04-22T02:52:45.502Z,20.4
2018-04-22T02:53:34.470Z,20.4
2018-04-22T02:54:25.936Z,20.4
2018-04-22T02:55:15.957Z,20.4
2018-04-22T02:56:05.478Z,20.4
2018-04-22T02:56:55.586Z,20.4
2018-04-22T02:57:45.878Z,20.4
2018-04-22T02:58:34.779Z,20.3
2018-04-22T02:59:26.798Z,20.3
2018-04-22T03:00:16.634Z,20.4
2018-04-22T03:01:06.104Z,20.3
2018-04-22T03:01:55.465Z,20.3
2018-04-22T03:02:45.125Z,20.3
2018-04-22T03:03:36.291Z,20.4
2018-04-22T03:04:26.670Z,20.4
2018-04-22T03:05:16.403Z,20.4
2018-04-22T03:06:06.549Z,20.3
2018-04-22T03:06:56.866Z,20.3
2018-04-22T03:07:45.808Z,20.3
2018-04-22T03:08:36.702Z,20.3
2018-04-22T03:09:26.793Z,20.3
2018-04-22T03:10:16.595Z,20.3
2018-04-22T03:11:06.555Z,20.3
2018-04-22T03:11:57.456Z,20.3
2018-04-22T03:12:47.579Z,20.3
2018-04-22T03:13:36.783Z,20.3
2018-04-22T03:14:27.680Z,20.3
2018-04-22T03:15:17.740Z,20.3
2018-04-22T03:16:06.978Z,20.3
2018-04-22T03:16:57.327Z,20.3
2018-04-22T03:17:47.386Z,20.3
2018-04-22T03:18:38.010Z,20.3
2018-04-22T03:19:28.023Z,20.3
2018-04-22T03:20:17.841Z,20.3
2018-04-22T03:21:07.340Z,20.3
2018-04-22T03:21:56.863Z,20.3
2018-04-22T03:22:46.946Z,20.3
2018-04-22T03:23:36.099Z,20.3
2018-04-22T03:24:28.721Z,20.3
2018-04-22T03:25:33.468Z,20.3
2018-04-22T03:26:07.417Z,20.2
2018-04-22T03:26:58.736Z,20.2
2018-04-22T03:27:47.300Z,20.2
2018-04-22T03:28:38.449Z,20.2
2018-04-22T03:29:27.759Z,20.2
2018-04-22T03:30:18.624Z,20.2
2018-04-22T03:31:08.987Z,20.2
2018-04-22T03:31:58.484Z,20.2
2018-04-22T03:32:48.560Z,20.2
2018-04-22T03:33:39.166Z,20.2
2018-04-22T03:34:28.623Z,20.2
2018-04-22T03:35:18.732Z,20.1
2018-04-22T03:36:09.320Z,20.2
2018-04-22T03:36:59.660Z,20.1
2018-04-22T03:37:48.574Z,20.1
2018-04-22T03:38:39.208Z,20.2
2018-04-22T03:39:29.013Z,20.1
2018-04-22T03:40:19.279Z,20.1
2018-04-22T03:41:09.680Z,20.1
2018-04-22T03:41:59.763Z,20.1
2018-04-22T03:42:48.976Z,20.1
2018-04-22T03:43:40.225Z,20.1
2018-04-22T03:44:29.667Z,20.1
2018-04-22T03:45:19.960Z,20.1
2018-04-22T03:46:09.815Z,20.1
2018-04-22T03:46:59.843Z,20.1
2018-04-22T03:47:48.464Z,20.1
2018-04-22T03:48:39.956Z,20.1
2018-04-22T03:49:30.318Z,20.1
2018-04-22T03:50:19.789Z,20.1
2018-04-22T03:51:09.886Z,20.1
2018-04-22T03:52:00.800Z,20.1
2018-04-22T03:52:49.481Z,20.1
2018-04-22T03:53:39.875Z,20.1
2018-04-22T03:54:30.511Z,20.1
2018-04-22T03:55:19.934Z,20
2018-04-22T03:56:10.871Z,20.1
2018-04-22T03:57:00.024Z,20
2018-04-22T03:57:50.684Z,20.1
2018-04-22T03:58:40.165Z,20
2018-04-22T03:59:30.497Z,20
2018-04-22T04:00:21.130Z,20.1
2018-04-22T04:01:10.621Z,20
2018-04-22T04:02:00.500Z,20
2018-04-22T04:02:50.742Z,20
2018-04-22T04:03:40.806Z,20
2018-04-22T04:04:30.671Z,20
2018-04-22T04:05:21.343Z,20
2018-04-22T04:06:11.602Z,20
2018-04-22T04:07:01.196Z,20
2018-04-22T04:07:51.509Z,20
2018-04-22T04:08:41.331Z,20
2018-04-22T04:09:30.980Z,20
2018-04-22T04:10:21.135Z,20
2018-04-22T04:11:11.180Z,19.9
2018-04-22T04:12:01.310Z,19.9
2018-04-22T04:12:51.889Z,20
2018-04-22T04:13:41.643Z,20
2018-04-22T04:14:31.721Z,19.9
2018-04-22T04:15:21.747Z,19.9
2018-04-22T04:16:11.834Z,20
2018-04-22T04:17:02.237Z,19.9
2018-04-22T04:17:51.721Z,19.9
2018-04-22T04:18:42.027Z,19.9
2018-04-22T04:19:31.655Z,19.9
2018-04-22T04:20:21.619Z,19.9
2018-04-22T04:21:12.256Z,19.9
2018-04-22T04:22:01.512Z,19.9
2018-04-22T04:22:52.648Z,19.9
2018-04-22T04:23:41.600Z,19.9
2018-04-22T04:24:32.453Z,19.9
2018-04-22T04:25:21.459Z,19.9
2018-04-22T04:26:12.071Z,19.9
2018-04-22T04:27:01.852Z,19.9
2018-04-22T04:27:52.276Z,19.9
2018-04-22T04:28:42.591Z,19.9
2018-04-22T04:29:32.675Z,19.9
2018-04-22T04:30:21.849Z,19.9
2018-04-22T04:31:13.042Z,19.9
2018-04-22T04:32:02.495Z,19.9
2018-04-22T04:32:53.388Z,19.9
2018-04-22T04:33:42.617Z,19.9
2018-04-22T04:34:33.018Z,19.9
2018-04-22T04:35:23.279Z,19.9
2018-04-22T04:36:13.465Z,19.9
2018-04-22T04:37:02.666Z,19.9
2018-04-22T04:37:52.716Z,19.9
2018-04-22T04:38:43.843Z,19.9
2018-04-22T04:39:33.841Z,19.9
2018-04-22T04:40:24.181Z,19.9
2018-04-22T04:41:13.708Z,19.9
2018-04-22T04:42:03.177Z,19.9
2018-04-22T04:42:53.869Z,19.9
2018-04-22T04:43:43.693Z,19.9
2018-04-22T04:44:34.253Z,19.9
2018-04-22T04:45:23.993Z,19.9
2018-04-22T04:46:13.734Z,19.9
2018-04-22T04:47:04.234Z,19.9
2018-04-22T04:47:54.517Z,19.8
2018-04-22T04:48:44.042Z,19.9
2018-04-22T04:49:33.637Z,19.8
2018-04-22T04:50:24.262Z,19.8
2018-04-22T04:51:14.813Z,19.9
2018-04-22T04:52:04.338Z,19.9
2018-04-22T04:52:54.121Z,19.8
2018-04-22T04:53:44.147Z,19.9
2018-04-22T04:54:34.768Z,19.9
2018-04-22T04:55:25.650Z,19.9
2018-04-22T04:56:14.680Z,19.8
2018-04-22T04:57:05.220Z,19.8
2018-04-22T04:57:54.924Z,19.9
2018-04-22T04:58:45.289Z,19.9
2018-04-22T04:59:35.949Z,19.9
2018-04-22T05:00:24.852Z,19.9
2018-04-22T05:01:15.789Z,19.9
2018-04-22T05:02:05.350Z,19.9
2018-04-22T05:02:55.930Z,19.9
2018-04-22T05:03:45.657Z,19.9
2018-04-22T05:04:34.930Z,19.9
2018-04-22T05:05:26.089Z,19.9
2018-04-22T05:06:15.636Z,19.9
2018-04-22T05:07:06.528Z,19.9
2018-04-22T05:07:55.991Z,19.9
2018-04-22T05:08:45.769Z,19.9
2018-04-22T05:09:36.661Z,19.9
2018-04-22T05:10:25.683Z,19.9
2018-04-22T05:11:16.848Z,19.9
2018-04-22T05:12:06.341Z,19.9
2018-04-22T05:12:56.104Z,19.9
2018-04-22T05:13:46.147Z,19.9
2018-04-22T05:14:36.818Z,19.9
2018-04-22T05:15:26.514Z,20
2018-04-22T05:16:16.280Z,20
2018-04-22T05:17:06.424Z,20
2018-04-22T05:17:57.052Z,20.1
2018-04-22T05:18:47.837Z,20
2018-04-22T05:19:37.478Z,20
2018-04-22T05:20:26.363Z,20.1
2018-04-22T05:21:16.196Z,20.1
2018-04-22T05:22:07.353Z,20.1
2018-04-22T05:22:56.553Z,20.1
2018-04-22T05:23:47.448Z,20.1
2018-04-22T05:24:36.991Z,20.1
2018-04-22T05:25:27.311Z,20.1
2018-04-22T05:26:17.406Z,20.1
2018-04-22T05:27:07.805Z,20.1
2018-04-22T05:27:57.210Z,20.1
2018-04-22T05:28:47.574Z,20.1
2018-04-22T05:29:38.178Z,20.1
2018-04-22T05:30:27.672Z,20.1
2018-04-22T05:31:19.188Z,20.1
2018-04-22T05:32:07.601Z,20.1
2018-04-22T05:32:57.608Z,20.1
2018-04-22T05:33:48.237Z,20.1
2018-04-22T05:34:38.274Z,20.1
2018-04-22T05:35:28.112Z,20.2
2018-04-22T05:36:18.106Z,20.2
2018-04-22T05:37:08.284Z,20.2
2018-04-22T05:37:58.001Z,20.2
2018-04-22T05:38:48.353Z,20.2
2018-04-22T05:39:38.187Z,20.2
2018-04-22T05:40:28.484Z,20.2
2018-04-22T05:41:17.985Z,20.2
2018-04-22T05:42:08.628Z,20.2
2018-04-22T05:42:59.159Z,20.3
2018-04-22T05:43:47.991Z,20.3
2018-04-22T05:44:38.251Z,20.3
2018-04-22T05:45:28.621Z,20.3
2018-04-22T05:46:18.360Z,20.3
2018-04-22T05:47:09.027Z,20.3
2018-04-22T05:47:59.576Z,20.3
2018-04-22T05:48:49.818Z,20.3
2018-04-22T05:49:39.797Z,20.3
2018-04-22T05:50:28.770Z,20.3
2018-04-22T05:51:18.513Z,20.3
2018-04-22T05:52:09.081Z,20.3
2018-04-22T05:52:59.378Z,20.3
2018-04-22T05:53:49.246Z,20.3
2018-04-22T05:54:39.329Z,20.4
2018-04-22T05:55:29.535Z,20.4
2018-04-22T05:56:19.234Z,20.4
2018-04-22T05:57:08.967Z,20.4
2018-04-22T05:57:59.041Z,20.4
2018-04-22T05:58:49.558Z,20.4
2018-04-22T05:59:39.202Z,20.4
2018-04-22T06:00:28.944Z,20.4
2018-04-22T06:01:19.271Z,20.4
2018-04-22T06:02:09.193Z,20.4
2018-04-22T06:03:00.999Z,20.4
2018-04-22T06:03:49.654Z,20.4
2018-04-22T06:04:39.497Z,20.4
2018-04-22T06:05:30.656Z,20.4
2018-04-22T06:06:20.147Z,20.5
2018-04-22T06:07:09.966Z,20.5
2018-04-22T06:07:59.825Z,20.5
2018-04-22T06:08:50.820Z,20.5
2018-04-22T06:09:39.679Z,20.5
2018-04-22T06:10:29.681Z,20.5
2018-04-22T06:11:20.331Z,20.5
2018-04-22T06:12:10.361Z,20.5
2018-04-22T06:13:01.456Z,20.5
2018-04-22T06:13:50.966Z,20.5
2018-04-22T06:14:41.402Z,20.5
2018-04-22T06:15:31.481Z,20.6
2018-04-22T06:16:21.166Z,20.6
2018-04-22T06:17:09.866Z,20.6
2018-04-22T06:18:00.272Z,20.6
2018-04-22T06:18:51.097Z,20.6
2018-04-22T06:19:41.183Z,20.6
2018-04-22T06:20:31.244Z,20.6
2018-04-22T06:21:21.286Z,20.6
2018-04-22T06:22:10.911Z,20.6
2018-04-22T06:23:01.854Z,20.6
2018-04-22T06:23:51.453Z,20.6
2018-04-22T06:24:40.998Z,20.6
2018-04-22T06:25:31.320Z,20.6
2018-04-22T06:26:20.795Z,20.6
2018-04-22T06:27:11.158Z,20.6
2018-04-22T06:28:01.784Z,20.6
2018-04-22T06:28:51.273Z,20.6
2018-04-22T06:29:42.504Z,20.6
2018-04-22T06:30:32.843Z,20.6
2018-04-22T06:31:22.313Z,20.6
2018-04-22T06:32:12.718Z,20.6
2018-04-22T06:33:00.289Z,20.6
2018-04-22T06:33:52.207Z,20.6
2018-04-22T06:34:41.476Z,20.6
2018-04-22T06:35:31.843Z,20.6
2018-04-22T06:36:22.283Z,20.6
2018-04-22T06:37:12.315Z,20.6
2018-04-22T06:38:03.136Z,20.6
2018-04-22T06:38:52.901Z,20.6
2018-04-22T06:39:41.830Z,20.7
2018-04-22T06:40:32.456Z,20.7
2018-04-22T06:41:22.293Z,20.7
2018-04-22T06:42:11.469Z,20.7
2018-04-22T06:43:02.662Z,20.7
2018-04-22T06:43:52.518Z,20.7
2018-04-22T06:44:43.364Z,20.7
2018-04-22T06:45:33.708Z,20.7
2018-04-22T06:46:22.931Z,20.7
2018-04-22T06:47:13.814Z,20.7
2018-04-22T06:48:03.064Z,20.8
2018-04-22T06:48:53.380Z,20.8
2018-04-22T06:49:43.456Z,20.8
2018-04-22T06:50:33.203Z,20.8
2018-04-22T06:51:23.026Z,20.8
2018-04-22T06:52:13.344Z,20.8
2018-04-22T06:53:04.319Z,20.8
2018-04-22T06:53:53.998Z,20.8
2018-04-22T06:54:44.050Z,20.8
2018-04-22T06:55:34.170Z,20.8
2018-04-22T06:56:24.068Z,20.8
2018-04-22T06:57:14.853Z,20.8
2018-04-22T06:58:04.406Z,20.8
2018-04-22T06:58:54.399Z,20.8
2018-04-22T06:59:44.751Z,20.8
2018-04-22T07:00:34.582Z,20.8
2018-04-22T07:01:24.332Z,20.8
2018-04-22T07:02:13.517Z,20.8
2018-04-22T07:03:03.333Z,20.8
2018-04-22T07:03:53.944Z,20.8
2018-04-22T07:04:44.882Z,20.9
2018-04-22T07:05:34.088Z,20.9
2018-04-22T07:06:24.757Z,20.9
2018-04-22T07:07:14.228Z,20.9
2018-04-22T07:08:04.721Z,20.9
2018-04-22T07:08:55.479Z,20.9
2018-04-22T07:09:44.694Z,20.9
2018-04-22T07:10:35.066Z,20.9
2018-04-22T07:11:25.089Z,20.9
2018-04-22T07:12:15.216Z,20.9
2018-04-22T07:13:05.119Z,20.9
2018-04-22T07:13:54.521Z,20.9
2018-04-22T07:14:45.485Z,20.9
2018-04-22T07:15:36.037Z,20.9
2018-04-22T07:16:26.387Z,20.9
2018-04-22T07:17:15.073Z,20.9
2018-04-22T07:18:05.908Z,20.9
2018-04-22T07:18:55.468Z,20.9
2018-04-22T07:19:46.700Z,20.9
2018-04-22T07:20:36.472Z,21
2018-04-22T07:21:26.294Z,21
2018-04-22T07:22:16.587Z,21
2018-04-22T07:23:06.837Z,21
2018-04-22T07:23:56.128Z,21
2018-04-22T07:24:45.806Z,21
2018-04-22T07:25:36.712Z,21
2018-04-22T07:26:26.526Z,21
2018-04-22T07:27:16.396Z,21
2018-04-22T07:28:07.288Z,21
2018-04-22T07:28:56.422Z,21
2018-04-22T07:29:46.506Z,21
2018-04-22T07:30:36.178Z,21
2018-04-22T07:31:25.251Z,21.1
2018-04-22T07:32:15.680Z,21.1
2018-04-22T07:33:06.757Z,21.1
2018-04-22T07:33:55.152Z,21.1
2018-04-22T07:34:46.480Z,21.1
2018-04-22T07:35:35.276Z,21.1
2018-04-22T07:36:25.192Z,21.1
2018-04-22T07:37:15.706Z,21.1
2018-04-22T07:38:06.151Z,21.1
2018-04-22T07:38:55.836Z,21.1
2018-04-22T07:40:36.382Z,21.1
2018-04-22T07:41:27.216Z,21.1
2018-04-22T07:48:56.862Z,21.2
2018-04-22T07:50:37.664Z,21.2
2018-04-22T07:51:27.678Z,21.3
2018-04-22T07:52:18.282Z,21.2
2018-04-22T07:53:07.860Z,21.2
2018-04-22T07:53:56.667Z,21.2
2018-04-22T07:54:47.999Z,21.3
2018-04-22T07:55:38.545Z,21.3
2018-04-22T07:56:27.731Z,21.2
2018-04-22T07:57:18.325Z,21.3
2018-04-22T07:58:08.422Z,21.3
2018-04-22T07:58:57.512Z,21.3
2018-04-22T07:59:48.384Z,21.3
2018-04-22T08:00:37.815Z,21.3
2018-04-22T08:01:28.988Z,21.3
2018-04-22T08:02:17.862Z,21.2
2018-04-22T08:03:09.326Z,21.3
2018-04-22T08:03:58.904Z,21.3
2018-04-22T08:04:49.732Z,21.3
2018-04-22T08:05:39.291Z,21.3
2018-04-22T08:06:29.339Z,21.3
2018-04-22T08:07:20.233Z,21.3
2018-04-22T08:08:10.088Z,21.3
2018-04-22T08:08:59.811Z,21.3
2018-04-22T08:09:50.125Z,21.3
2018-04-22T08:10:39.642Z,21.3
2018-04-22T08:11:30.321Z,21.3
2018-04-22T08:12:20.316Z,21.3
2018-04-22T08:13:10.657Z,21.3
2018-04-22T08:13:59.714Z,21.3
2018-04-22T08:14:49.967Z,21.3
2018-04-22T08:15:40.074Z,21.3
2018-04-22T08:16:30.168Z,21.3
2018-04-22T08:17:20.735Z,21.3
2018-04-22T08:18:09.928Z,21.3
2018-04-22T08:19:00.558Z,21.4
2018-04-22T08:19:49.161Z,21.4
2018-04-22T08:20:39.866Z,21.4
2018-04-22T08:21:30.272Z,21.4
2018-04-22T08:22:20.675Z,21.4
2018-04-22T08:23:09.843Z,21.4
2018-04-22T08:24:00.186Z,21.4
2018-04-22T08:24:50.783Z,21.4
2018-04-22T08:25:40.886Z,21.4
2018-04-22T08:26:30.409Z,21.4
2018-04-22T08:27:21.308Z,21.4
2018-04-22T08:28:10.041Z,21.4
2018-04-22T08:29:00.447Z,21.4
2018-04-22T08:29:50.695Z,21.4
2018-04-22T08:30:40.772Z,21.4
2018-04-22T08:31:31.144Z,21.4
2018-04-22T08:32:21.418Z,21.4
2018-04-22T08:33:09.875Z,21.4
2018-04-22T08:34:02.525Z,21.4
2018-04-22T08:34:50.739Z,21.4
2018-04-22T08:35:41.137Z,21.4
2018-04-22T08:36:31.232Z,21.5
2018-04-22T08:37:21.800Z,21.4
2018-04-22T08:38:11.797Z,21.4
2018-04-22T08:39:02.390Z,21.4
2018-04-22T08:39:51.966Z,21.4
2018-04-22T08:40:41.672Z,21.5
2018-04-22T08:41:31.305Z,21.4
2018-04-22T08:42:21.346Z,21.4
2018-04-22T08:43:12.344Z,21.4
2018-04-22T08:44:03.431Z,21.5
2018-04-22T08:44:52.577Z,21.5
2018-04-22T08:45:42.649Z,21.5
2018-04-22T08:46:32.508Z,21.5
2018-04-22T08:47:23.295Z,21.5
2018-04-22T08:48:12.891Z,21.5
2018-04-22T08:49:02.332Z,21.5
2018-04-22T08:49:53.232Z,21.5
2018-04-22T08:50:44.473Z,21.5
2018-04-22T08:51:33.127Z,21.5
2018-04-22T08:52:22.109Z,21.5
2018-04-22T08:53:12.971Z,21.6
2018-04-22T08:54:02.722Z,21.5
2018-04-22T08:54:53.100Z,21.6
2018-04-22T08:55:43.676Z,21.6
2018-04-22T08:56:33.487Z,21.5
2018-04-22T08:57:23.261Z,21.6
2018-04-22T08:58:14.217Z,21.6
2018-04-22T08:59:03.716Z,21.6
2018-04-22T08:59:53.423Z,21.6
2018-04-22T09:00:43.289Z,21.6
2018-04-22T09:01:34.122Z,21.6
2018-04-22T09:02:23.908Z,21.6
2018-04-22T09:03:14.556Z,21.6
2018-04-22T09:04:04.361Z,21.6
2018-04-22T09:04:53.847Z,21.6
2018-04-22T09:05:44.805Z,21.6
2018-04-22T09:06:34.529Z,21.5
2018-04-22T09:07:24.588Z,21.6
2018-04-22T09:08:14.368Z,21.6
2018-04-22T09:09:05.000Z,21.6
2018-04-22T09:09:55.098Z,21.6
2018-04-22T09:10:44.573Z,21.6
2018-04-22T09:11:34.895Z,21.6
2018-04-22T09:12:24.138Z,21.6
2018-04-22T09:13:14.536Z,21.6
2018-04-22T09:14:05.436Z,21.6
2018-04-22T09:14:54.661Z,21.6
2018-04-22T09:15:45.517Z,21.6
2018-04-22T09:16:34.588Z,21.6
2018-04-22T09:17:23.961Z,21.6
2018-04-22T09:18:15.779Z,21.6
2018-04-22T09:19:04.999Z,21.6
2018-04-22T09:19:55.009Z,21.6
2018-04-22T09:20:44.823Z,21.6
2018-04-22T09:21:34.928Z,21.6
2018-04-22T09:22:25.031Z,21.6
2018-04-22T09:23:15.016Z,21.6
2018-04-22T09:24:05.611Z,21.6
2018-04-22T09:24:55.128Z,21.6
2018-04-22T09:25:45.021Z,21.6
2018-04-22T09:26:36.160Z,21.6
2018-04-22T09:27:25.705Z,21.6
2018-04-22T09:28:15.473Z,21.6
2018-04-22T09:29:06.294Z,21.6
2018-04-22T09:29:55.749Z,21.6
2018-04-22T09:30:45.653Z,21.6
2018-04-22T09:31:35.930Z,21.6
2018-04-22T09:32:26.296Z,21.6
2018-04-22T09:33:17.156Z,21.5
2018-04-22T09:34:06.415Z,21.6
2018-04-22T09:34:57.055Z,21.6
2018-04-22T09:35:46.609Z,21.6
2018-04-22T09:36:36.896Z,21.6
2018-04-22T09:37:26.116Z,21.6
2018-04-22T09:38:16.241Z,21.6
2018-04-22T09:39:06.757Z,21.6
2018-04-22T09:39:56.612Z,21.6
2018-04-22T09:40:46.949Z,21.6
2018-04-22T09:41:36.716Z,21.6
2018-04-22T09:42:26.321Z,21.6
2018-04-22T09:43:17.700Z,21.6
2018-04-22T09:44:06.988Z,21.6
2018-04-22T09:44:57.468Z,21.6
2018-04-22T09:45:47.532Z,21.6
2018-04-22T09:46:37.113Z,21.6
2018-04-22T09:47:27.291Z,21.6
2018-04-22T09:48:17.039Z,21.6
2018-04-22T09:49:06.550Z,21.6
2018-04-22T09:49:57.866Z,21.6
2018-04-22T09:50:46.615Z,21.6
2018-04-22T09:51:37.572Z,21.6
2018-04-22T09:52:27.889Z,21.6
2018-04-22T09:53:17.463Z,21.6
2018-04-22T09:54:06.933Z,21.6
2018-04-22T09:54:57.572Z,21.6
2018-04-22T09:55:47.697Z,21.6
2018-04-22T09:56:37.189Z,21.6
2018-04-22T09:57:27.762Z,21.6
2018-04-22T09:58:18.081Z,21.6
2018-04-22T09:59:07.146Z,21.6
2018-04-22T09:59:58.036Z,21.6
2018-04-22T10:00:47.827Z,21.6
2018-04-22T10:01:37.579Z,21.6
2018-04-22T10:02:28.160Z,21.6
2018-04-22T10:03:18.225Z,21.6
2018-04-22T10:04:07.469Z,21.6
2018-04-22T10:04:58.918Z,21.6
2018-04-22T10:05:47.582Z,21.6
2018-04-22T10:06:38.594Z,21.6
2018-04-22T10:07:28.319Z,21.6
2018-04-22T10:08:18.383Z,21.6
2018-04-22T10:09:08.429Z,21.6
2018-04-22T10:09:58.222Z,21.6
2018-04-22T10:10:48.274Z,21.6
2018-04-22T10:11:38.078Z,21.6
2018-04-22T10:12:28.401Z,21.6
2018-04-22T10:13:18.448Z,21.6
2018-04-22T10:14:08.925Z,21.6
2018-04-22T10:14:57.767Z,21.6
2018-04-22T10:15:48.666Z,21.6
2018-04-22T10:16:38.798Z,21.6
2018-04-22T10:17:29.054Z,21.6
2018-04-22T10:18:18.621Z,21.6
2018-04-22T10:19:07.600Z,21.6
2018-04-22T10:19:58.542Z,21.6
2018-04-22T10:20:50.111Z,21.6
2018-04-22T10:21:39.391Z,21.6
2018-04-22T10:22:29.267Z,21.6
2018-04-22T10:23:19.273Z,21.6
2018-04-22T10:24:09.062Z,21.6
2018-04-22T10:24:59.669Z,21.6
2018-04-22T10:25:49.467Z,21.6
2018-04-22T10:26:40.149Z,21.6
2018-04-22T10:27:29.636Z,21.6
2018-04-22T10:28:19.372Z,21.6
2018-04-22T10:29:10.207Z,21.6
2018-04-22T10:30:00.290Z,21.6
2018-04-22T10:30:49.299Z,21.6
2018-04-22T10:31:39.643Z,21.7
2018-04-22T10:32:30.774Z,21.6
2018-04-22T10:33:19.754Z,21.6
2018-04-22T10:34:10.757Z,21.6
2018-04-22T10:34:58.711Z,21.6
2018-04-22T10:35:50.516Z,21.6
2018-04-22T10:36:41.101Z,21.7
2018-04-22T10:37:30.121Z,21.7
2018-04-22T10:38:21.191Z,21.7
2018-04-22T10:39:10.682Z,21.6
2018-04-22T10:40:00.512Z,21.7
2018-04-22T10:40:50.319Z,21.7
2018-04-22T10:41:40.705Z,21.7
2018-04-22T10:42:30.149Z,21.7
2018-04-22T10:43:20.296Z,21.7
2018-04-22T10:44:10.820Z,21.7
2018-04-22T10:45:00.912Z,21.8
2018-04-22T10:45:50.954Z,21.7
2018-04-22T10:46:41.603Z,21.8
2018-04-22T10:47:31.116Z,21.7
2018-04-22T10:48:21.966Z,21.7
2018-04-22T10:49:11.753Z,21.8
2018-04-22T10:50:01.571Z,21.7
2018-04-22T10:50:52.952Z,21.7
2018-04-22T10:51:42.718Z,21.8
2018-04-22T10:52:32.790Z,21.8
2018-04-22T10:53:22.838Z,21.7
2018-04-22T10:54:12.685Z,21.8
2018-04-22T10:55:02.189Z,21.8
2018-04-22T10:55:52.736Z,21.8
2018-04-22T10:56:42.856Z,21.8
2018-04-22T10:57:32.420Z,21.8
2018-04-22T10:58:22.715Z,21.8
2018-04-22T10:59:13.055Z,21.8
2018-04-22T11:00:03.509Z,21.8
2018-04-22T11:00:53.215Z,21.7
2018-04-22T11:01:42.943Z,21.8
2018-04-22T11:02:33.305Z,21.8
2018-04-22T11:03:23.091Z,21.8
2018-04-22T11:04:12.859Z,21.8
2018-04-22T11:05:03.021Z,21.8
2018-04-22T11:05:53.287Z,21.8
2018-04-22T11:06:43.647Z,21.8
2018-04-22T11:07:33.402Z,21.8
2018-04-22T11:08:23.478Z,21.8
2018-04-22T11:09:14.127Z,21.8
2018-04-22T11:10:03.054Z,21.8
2018-04-22T11:10:53.677Z,21.8
2018-04-22T11:11:43.598Z,21.8
2018-04-22T11:12:34.051Z,21.8
2018-04-22T11:13:24.479Z,21.8
2018-04-22T11:14:13.999Z,21.8
2018-04-22T11:15:03.985Z,21.8
2018-04-22T11:15:53.513Z,21.8
2018-04-22T11:16:43.664Z,21.8
2018-04-22T11:17:34.185Z,21.8
2018-04-22T11:18:24.864Z,21.8
2018-04-22T11:19:14.996Z,21.8
2018-04-22T11:20:05.259Z,21.8
2018-04-22T11:20:54.407Z,21.8
2018-04-22T11:21:44.776Z,21.8